sensor_id;sensor_type;location;lat;lon;timestamp;noise_LAeq;noise_LA_min;noise_LA_max;noise_LA01;noise_LA95
67308;Laerm;57662;51.436;5.978;2023-06-22T00:00:09;40.68;33.68;52.47;;
67308;Laerm;57662;51.436;5.978;2023-06-22T00:00:22;35.08;34.01;36.17;;
67308;Laerm;57662;51.436;5.978;2023-06-22T00:00:32;35.09;34.06;36.20;;
67308;Laerm;57662;51.436;5.978;2023-06-22T00:00:42;35.04;33.70;36.60;;
67308;Laerm;57662;51.436;5.978;2023-06-22T00:00:53;34.90;33.67;35.90;;
67308;Laerm;57662;51.436;5.978;2023-06-22T00:01:04;34.76;33.81;36.20;;
67308;Laerm;57662;51.436;5.978;2023-06-22T00:01:14;34.87;33.39;36.27;;
67308;Laerm;57662;51.436;5.978;2023-06-22T00:01:24;35.14;34.05;36.67;;
67308;Laerm;57662;51.436;5.978;2023-06-22T00:01:34;35.34;34.07;36.42;;
67308;Laerm;57662;51.436;5.978;2023-06-22T00:01:45;35.25;34.09;36.93;;
67308;Laerm;57662;51.436;5.978;2023-06-22T00:01:55;35.27;34.04;36.73;;
67308;Laerm;57662;51.436;5.978;2023-06-22T00:02:06;35.08;33.88;36.43;;
67308;Laerm;57662;51.436;5.978;2023-06-22T00:02:16;34.97;33.83;36.13;;
67308;Laerm;57662;51.436;5.978;2023-06-22T00:02:27;34.87;33.68;36.40;;
67308;Laerm;57662;51.436;5.978;2023-06-22T00:02:37;34.76;33.41;36.27;;
67308;Laerm;57662;51.436;5.978;2023-06-22T00:02:47;34.91;33.20;36.01;;
67308;Laerm;57662;51.436;5.978;2023-06-22T00:02:57;34.93;33.75;35.87;;
67308;Laerm;57662;51.436;5.978;2023-06-22T00:03:08;34.72;33.27;35.82;;
67308;Laerm;57662;51.436;5.978;2023-06-22T00:03:19;34.82;33.70;36.08;;
67308;Laerm;57662;51.436;5.978;2023-06-22T00:03:30;34.92;33.75;35.87;;
67308;Laerm;57662;51.436;5.978;2023-06-22T00:03:40;34.84;33.68;35.97;;
67308;Laerm;57662;51.436;5.978;2023-06-22T00:03:50;34.87;33.86;35.90;;
67308;Laerm;57662;51.436;5.978;2023-06-22T00:04:01;34.89;33.57;35.76;;
67308;Laerm;57662;51.436;5.978;2023-06-22T00:04:11;35.03;33.94;36.36;;
67308;Laerm;57662;51.436;5.978;2023-06-22T00:04:21;34.99;33.81;35.98;;
67308;Laerm;57662;51.436;5.978;2023-06-22T00:04:32;34.96;33.38;36.12;;
67308;Laerm;57662;51.436;5.978;2023-06-22T00:04:42;34.91;33.84;36.45;;
67308;Laerm;57662;51.436;5.978;2023-06-22T00:04:52;34.93;33.79;36.16;;
67308;Laerm;57662;51.436;5.978;2023-06-22T00:05:03;35.07;33.88;36.25;;
67308;Laerm;57662;51.436;5.978;2023-06-22T00:05:13;35.08;33.75;36.43;;
67308;Laerm;57662;51.436;5.978;2023-06-22T00:05:23;35.04;33.89;36.10;;
67308;Laerm;57662;51.436;5.978;2023-06-22T00:05:34;35.17;33.75;36.62;;
67308;Laerm;57662;51.436;5.978;2023-06-22T00:05:44;35.06;33.42;36.84;;
67308;Laerm;57662;51.436;5.978;2023-06-22T00:05:55;35.02;33.86;36.33;;
67308;Laerm;57662;51.436;5.978;2023-06-22T00:06:06;35.02;33.83;36.38;;
67308;Laerm;57662;51.436;5.978;2023-06-22T00:06:16;35.28;33.83;37.02;;
67308;Laerm;57662;51.436;5.978;2023-06-22T00:06:27;35.39;34.17;36.65;;
67308;Laerm;57662;51.436;5.978;2023-06-22T00:06:37;35.26;33.94;36.70;;
67308;Laerm;57662;51.436;5.978;2023-06-22T00:06:48;35.14;34.10;36.48;;
67308;Laerm;57662;51.436;5.978;2023-06-22T00:06:58;35.05;33.80;36.07;;
67308;Laerm;57662;51.436;5.978;2023-06-22T00:07:08;35.09;33.71;36.40;;
67308;Laerm;57662;51.436;5.978;2023-06-22T00:07:18;35.23;33.65;36.61;;
67308;Laerm;57662;51.436;5.978;2023-06-22T00:07:29;35.21;33.95;36.78;;
67308;Laerm;57662;51.436;5.978;2023-06-22T00:07:39;35.39;34.18;36.43;;
67308;Laerm;57662;51.436;5.978;2023-06-22T00:07:49;35.58;34.27;37.05;;
67308;Laerm;57662;51.436;5.978;2023-06-22T00:08:01;35.70;34.47;37.06;;
67308;Laerm;57662;51.436;5.978;2023-06-22T00:08:12;35.96;34.13;39.46;;
67308;Laerm;57662;51.436;5.978;2023-06-22T00:08:22;35.83;34.28;37.91;;
67308;Laerm;57662;51.436;5.978;2023-06-22T00:08:32;36.14;34.22;39.89;;
67308;Laerm;57662;51.436;5.978;2023-06-22T00:08:43;36.19;34.60;39.58;;
67308;Laerm;57662;51.436;5.978;2023-06-22T00:08:54;36.59;34.37;39.80;;
67308;Laerm;57662;51.436;5.978;2023-06-22T00:09:05;36.76;34.43;44.12;;
67308;Laerm;57662;51.436;5.978;2023-06-22T00:09:16;35.78;34.10;38.67;;
67308;Laerm;57662;51.436;5.978;2023-06-22T00:09:27;36.12;34.26;39.26;;
67308;Laerm;57662;51.436;5.978;2023-06-22T00:09:37;35.89;33.81;39.15;;
67308;Laerm;57662;51.436;5.978;2023-06-22T00:09:47;35.66;34.24;37.59;;
67308;Laerm;57662;51.436;5.978;2023-06-22T00:09:58;35.91;34.25;40.03;;
67308;Laerm;57662;51.436;5.978;2023-06-22T00:10:08;35.51;33.62;38.24;;
67308;Laerm;57662;51.436;5.978;2023-06-22T00:10:19;35.73;34.19;37.90;;
67308;Laerm;57662;51.436;5.978;2023-06-22T00:10:32;35.54;34.14;38.41;;
67308;Laerm;57662;51.436;5.978;2023-06-22T00:10:42;35.27;33.70;37.93;;
67308;Laerm;57662;51.436;5.978;2023-06-22T00:10:53;35.12;33.88;38.28;;
67308;Laerm;57662;51.436;5.978;2023-06-22T00:11:03;35.00;33.71;36.42;;
67308;Laerm;57662;51.436;5.978;2023-06-22T00:11:14;35.06;33.71;36.32;;
67308;Laerm;57662;51.436;5.978;2023-06-22T00:11:24;35.21;34.02;36.40;;
67308;Laerm;57662;51.436;5.978;2023-06-22T00:11:34;35.42;34.14;37.43;;
67308;Laerm;57662;51.436;5.978;2023-06-22T00:11:44;35.61;34.40;36.88;;
67308;Laerm;57662;51.436;5.978;2023-06-22T00:11:55;35.84;34.38;37.64;;
67308;Laerm;57662;51.436;5.978;2023-06-22T00:12:05;35.88;34.56;37.46;;
67308;Laerm;57662;51.436;5.978;2023-06-22T00:12:15;35.59;34.17;37.16;;
67308;Laerm;57662;51.436;5.978;2023-06-22T00:12:26;35.50;34.28;37.03;;
67308;Laerm;57662;51.436;5.978;2023-06-22T00:12:36;35.49;33.69;36.88;;
67308;Laerm;57662;51.436;5.978;2023-06-22T00:12:47;35.51;33.89;36.79;;
67308;Laerm;57662;51.436;5.978;2023-06-22T00:12:58;35.32;33.77;36.48;;
67308;Laerm;57662;51.436;5.978;2023-06-22T00:13:08;35.19;33.87;36.83;;
67308;Laerm;57662;51.436;5.978;2023-06-22T00:13:19;35.19;33.88;36.66;;
67308;Laerm;57662;51.436;5.978;2023-06-22T00:13:30;35.10;34.20;36.38;;
67308;Laerm;57662;51.436;5.978;2023-06-22T00:13:40;35.12;33.78;36.34;;
67308;Laerm;57662;51.436;5.978;2023-06-22T00:13:50;34.96;33.91;36.03;;
67308;Laerm;57662;51.436;5.978;2023-06-22T00:14:01;35.13;33.96;36.17;;
67308;Laerm;57662;51.436;5.978;2023-06-22T00:14:11;35.19;33.85;36.71;;
67308;Laerm;57662;51.436;5.978;2023-06-22T00:14:21;35.45;34.27;36.86;;
67308;Laerm;57662;51.436;5.978;2023-06-22T00:14:32;35.76;34.22;38.97;;
67308;Laerm;57662;51.436;5.978;2023-06-22T00:14:42;36.03;34.32;39.83;;
67308;Laerm;57662;51.436;5.978;2023-06-22T00:14:53;36.22;34.53;39.06;;
67308;Laerm;57662;51.436;5.978;2023-06-22T00:15:06;36.06;34.48;38.69;;
67308;Laerm;57662;51.436;5.978;2023-06-22T00:15:16;36.22;34.06;39.01;;
67308;Laerm;57662;51.436;5.978;2023-06-22T00:15:26;36.15;34.63;39.05;;
67308;Laerm;57662;51.436;5.978;2023-06-22T00:15:38;36.18;34.11;39.57;;
67308;Laerm;57662;51.436;5.978;2023-06-22T00:15:48;36.41;34.06;41.21;;
67308;Laerm;57662;51.436;5.978;2023-06-22T00:15:58;36.77;34.74;41.13;;
67308;Laerm;57662;51.436;5.978;2023-06-22T00:16:09;35.62;34.16;39.39;;
67308;Laerm;57662;51.436;5.978;2023-06-22T00:16:19;35.97;34.27;40.26;;
67308;Laerm;57662;51.436;5.978;2023-06-22T00:16:33;35.80;34.40;37.67;;
67308;Laerm;57662;51.436;5.978;2023-06-22T00:16:43;35.56;34.29;37.12;;
67308;Laerm;57662;51.436;5.978;2023-06-22T00:16:53;35.50;34.56;37.01;;
67308;Laerm;57662;51.436;5.978;2023-06-22T00:17:07;35.32;34.01;36.80;;
67308;Laerm;57662;51.436;5.978;2023-06-22T00:17:17;35.34;33.51;43.54;;
67308;Laerm;57662;51.436;5.978;2023-06-22T00:17:27;35.21;34.12;36.31;;
67308;Laerm;57662;51.436;5.978;2023-06-22T00:17:37;35.35;34.14;37.32;;
67308;Laerm;57662;51.436;5.978;2023-06-22T00:17:48;35.28;34.20;36.39;;
67308;Laerm;57662;51.436;5.978;2023-06-22T00:17:59;35.18;34.01;36.38;;
67308;Laerm;57662;51.436;5.978;2023-06-22T00:18:10;34.94;34.02;35.93;;
67308;Laerm;57662;51.436;5.978;2023-06-22T00:18:20;34.86;33.86;36.01;;
67308;Laerm;57662;51.436;5.978;2023-06-22T00:18:31;34.80;33.68;35.73;;
67308;Laerm;57662;51.436;5.978;2023-06-22T00:18:42;34.88;33.83;36.07;;
67308;Laerm;57662;51.436;5.978;2023-06-22T00:18:57;34.84;33.58;36.15;;
67308;Laerm;57662;51.436;5.978;2023-06-22T00:19:10;34.71;33.49;35.74;;
67308;Laerm;57662;51.436;5.978;2023-06-22T00:19:21;34.93;33.75;36.04;;
67308;Laerm;57662;51.436;5.978;2023-06-22T00:19:32;36.13;33.89;39.35;;
67308;Laerm;57662;51.436;5.978;2023-06-22T00:19:46;41.88;34.43;49.63;;
67308;Laerm;57662;51.436;5.978;2023-06-22T00:19:57;35.19;34.01;36.59;;
67308;Laerm;57662;51.436;5.978;2023-06-22T00:20:08;35.22;33.99;36.57;;
67308;Laerm;57662;51.436;5.978;2023-06-22T00:20:20;35.36;33.94;39.11;;
67308;Laerm;57662;51.436;5.978;2023-06-22T00:20:30;35.14;33.91;36.75;;
67308;Laerm;57662;51.436;5.978;2023-06-22T00:20:41;35.08;33.26;42.14;;
67308;Laerm;57662;51.436;5.978;2023-06-22T00:20:52;35.81;33.77;46.81;;
67308;Laerm;57662;51.436;5.978;2023-06-22T00:21:06;35.06;33.67;39.88;;
67308;Laerm;57662;51.436;5.978;2023-06-22T00:21:16;35.48;33.91;44.62;;
67308;Laerm;57662;51.436;5.978;2023-06-22T00:21:27;35.15;33.74;37.60;;
67308;Laerm;57662;51.436;5.978;2023-06-22T00:21:37;35.58;34.43;36.87;;
67308;Laerm;57662;51.436;5.978;2023-06-22T00:21:48;38.00;34.39;48.03;;
67308;Laerm;57662;51.436;5.978;2023-06-22T00:22:02;35.94;34.24;38.30;;
67308;Laerm;57662;51.436;5.978;2023-06-22T00:22:13;35.23;33.89;36.69;;
67308;Laerm;57662;51.436;5.978;2023-06-22T00:22:23;35.07;33.82;36.38;;
67308;Laerm;57662;51.436;5.978;2023-06-22T00:22:38;35.05;33.89;36.91;;
67308;Laerm;57662;51.436;5.978;2023-06-22T00:22:49;35.01;33.88;36.26;;
67308;Laerm;57662;51.436;5.978;2023-06-22T00:22:59;35.29;33.83;36.64;;
67308;Laerm;57662;51.436;5.978;2023-06-22T00:23:10;35.27;34.07;36.53;;
67308;Laerm;57662;51.436;5.978;2023-06-22T00:23:20;35.05;33.65;36.57;;
67308;Laerm;57662;51.436;5.978;2023-06-22T00:23:30;35.08;33.69;37.14;;
67308;Laerm;57662;51.436;5.978;2023-06-22T00:23:44;35.00;33.84;36.45;;
67308;Laerm;57662;51.436;5.978;2023-06-22T00:23:54;34.98;33.65;41.86;;
67308;Laerm;57662;51.436;5.978;2023-06-22T00:24:05;35.25;33.90;37.50;;
67308;Laerm;57662;51.436;5.978;2023-06-22T00:24:16;35.88;34.39;38.43;;
67308;Laerm;57662;51.436;5.978;2023-06-22T00:24:26;35.18;34.14;36.35;;
67308;Laerm;57662;51.436;5.978;2023-06-22T00:24:37;35.79;34.04;37.90;;
67308;Laerm;57662;51.436;5.978;2023-06-22T00:24:47;41.64;37.06;46.26;;
67308;Laerm;57662;51.436;5.978;2023-06-22T00:24:58;40.71;35.78;44.37;;
67308;Laerm;57662;51.436;5.978;2023-06-22T00:25:08;35.83;33.97;37.80;;
67308;Laerm;57662;51.436;5.978;2023-06-22T00:25:19;34.96;33.80;36.15;;
67308;Laerm;57662;51.436;5.978;2023-06-22T00:25:29;35.01;33.76;36.35;;
67308;Laerm;57662;51.436;5.978;2023-06-22T00:25:39;35.16;33.95;36.35;;
67308;Laerm;57662;51.436;5.978;2023-06-22T00:25:50;35.11;33.90;36.39;;
67308;Laerm;57662;51.436;5.978;2023-06-22T00:26:02;35.04;33.69;36.25;;
67308;Laerm;57662;51.436;5.978;2023-06-22T00:26:13;35.02;33.79;36.67;;
67308;Laerm;57662;51.436;5.978;2023-06-22T00:26:23;34.93;33.82;36.34;;
67308;Laerm;57662;51.436;5.978;2023-06-22T00:26:33;38.89;34.06;44.78;;
67308;Laerm;57662;51.436;5.978;2023-06-22T00:26:44;43.47;39.06;47.06;;
67308;Laerm;57662;51.436;5.978;2023-06-22T00:26:54;43.25;37.89;47.83;;
67308;Laerm;57662;51.436;5.978;2023-06-22T00:27:05;43.59;39.61;47.72;;
67308;Laerm;57662;51.436;5.978;2023-06-22T00:27:15;62.41;41.90;70.66;;
67308;Laerm;57662;51.436;5.978;2023-06-22T00:27:26;67.59;64.63;70.73;;
67308;Laerm;57662;51.436;5.978;2023-06-22T00:27:36;67.55;65.23;71.04;;
67308;Laerm;57662;51.436;5.978;2023-06-22T00:27:47;61.22;41.87;71.42;;
67308;Laerm;57662;51.436;5.978;2023-06-22T00:27:57;41.06;38.47;45.00;;
67308;Laerm;57662;51.436;5.978;2023-06-22T00:28:08;40.36;38.43;42.41;;
67308;Laerm;57662;51.436;5.978;2023-06-22T00:28:18;39.36;37.14;42.76;;
67308;Laerm;57662;51.436;5.978;2023-06-22T00:28:29;39.35;37.09;42.28;;
67308;Laerm;57662;51.436;5.978;2023-06-22T00:28:39;39.11;36.28;42.70;;
67308;Laerm;57662;51.436;5.978;2023-06-22T00:28:50;37.93;35.72;40.53;;
67308;Laerm;57662;51.436;5.978;2023-06-22T00:29:00;36.08;34.89;37.53;;
67308;Laerm;57662;51.436;5.978;2023-06-22T00:29:10;36.09;34.39;37.55;;
67308;Laerm;57662;51.436;5.978;2023-06-22T00:29:21;36.44;34.49;41.20;;
67308;Laerm;57662;51.436;5.978;2023-06-22T00:29:31;36.75;35.31;40.08;;
67308;Laerm;57662;51.436;5.978;2023-06-22T00:29:41;35.76;34.23;39.69;;
67308;Laerm;57662;51.436;5.978;2023-06-22T00:29:51;35.41;34.04;36.80;;
67308;Laerm;57662;51.436;5.978;2023-06-22T00:30:02;35.05;33.96;36.25;;
67308;Laerm;57662;51.436;5.978;2023-06-22T00:30:13;35.04;34.01;36.13;;
67308;Laerm;57662;51.436;5.978;2023-06-22T00:30:24;35.23;34.13;36.47;;
67308;Laerm;57662;51.436;5.978;2023-06-22T00:30:35;35.27;33.87;36.38;;
67308;Laerm;57662;51.436;5.978;2023-06-22T00:30:45;35.31;34.15;36.56;;
67308;Laerm;57662;51.436;5.978;2023-06-22T00:30:55;35.14;33.99;37.51;;
67308;Laerm;57662;51.436;5.978;2023-06-22T00:31:06;38.42;33.66;51.65;;
67308;Laerm;57662;51.436;5.978;2023-06-22T00:31:16;35.19;34.06;36.43;;
67308;Laerm;57662;51.436;5.978;2023-06-22T00:31:27;35.25;34.14;36.59;;
67308;Laerm;57662;51.436;5.978;2023-06-22T00:31:37;35.23;34.23;36.64;;
67308;Laerm;57662;51.436;5.978;2023-06-22T00:31:47;35.21;34.15;36.49;;
67308;Laerm;57662;51.436;5.978;2023-06-22T00:31:58;34.97;33.78;36.06;;
67308;Laerm;57662;51.436;5.978;2023-06-22T00:32:08;34.92;33.81;36.18;;
67308;Laerm;57662;51.436;5.978;2023-06-22T00:32:18;34.92;34.02;35.89;;
67308;Laerm;57662;51.436;5.978;2023-06-22T00:32:28;35.04;33.66;36.25;;
67308;Laerm;57662;51.436;5.978;2023-06-22T00:32:39;35.23;34.03;42.16;;
67308;Laerm;57662;51.436;5.978;2023-06-22T00:32:49;35.11;33.91;36.18;;
67308;Laerm;57662;51.436;5.978;2023-06-22T00:33:00;34.95;33.83;36.40;;
67308;Laerm;57662;51.436;5.978;2023-06-22T00:33:10;34.98;33.77;36.15;;
67308;Laerm;57662;51.436;5.978;2023-06-22T00:33:21;35.05;34.00;36.21;;
67308;Laerm;57662;51.436;5.978;2023-06-22T00:33:31;34.84;33.57;35.94;;
67308;Laerm;57662;51.436;5.978;2023-06-22T00:33:41;34.99;33.98;36.10;;
67308;Laerm;57662;51.436;5.978;2023-06-22T00:33:52;35.01;33.81;36.22;;
67308;Laerm;57662;51.436;5.978;2023-06-22T00:34:02;34.92;33.91;35.96;;
67308;Laerm;57662;51.436;5.978;2023-06-22T00:34:12;34.78;33.65;35.71;;
67308;Laerm;57662;51.436;5.978;2023-06-22T00:34:23;34.95;33.82;35.82;;
67308;Laerm;57662;51.436;5.978;2023-06-22T00:34:33;34.89;33.86;36.02;;
67308;Laerm;57662;51.436;5.978;2023-06-22T00:34:43;34.87;33.66;35.99;;
67308;Laerm;57662;51.436;5.978;2023-06-22T00:34:54;34.91;33.47;36.08;;
67308;Laerm;57662;51.436;5.978;2023-06-22T00:35:04;35.06;33.82;36.11;;
67308;Laerm;57662;51.436;5.978;2023-06-22T00:35:14;35.16;33.94;36.37;;
67308;Laerm;57662;51.436;5.978;2023-06-22T00:35:25;35.05;33.68;36.05;;
67308;Laerm;57662;51.436;5.978;2023-06-22T00:35:38;34.91;33.77;36.33;;
67308;Laerm;57662;51.436;5.978;2023-06-22T00:35:51;34.98;33.89;36.48;;
67308;Laerm;57662;51.436;5.978;2023-06-22T00:36:02;34.98;33.77;35.91;;
67308;Laerm;57662;51.436;5.978;2023-06-22T00:36:13;35.06;34.08;36.27;;
67308;Laerm;57662;51.436;5.978;2023-06-22T00:36:26;35.02;33.78;36.12;;
67308;Laerm;57662;51.436;5.978;2023-06-22T00:36:36;34.99;33.93;36.17;;
67308;Laerm;57662;51.436;5.978;2023-06-22T00:36:47;34.99;34.03;36.04;;
67308;Laerm;57662;51.436;5.978;2023-06-22T00:36:57;35.30;33.81;36.83;;
67308;Laerm;57662;51.436;5.978;2023-06-22T00:37:07;38.05;34.79;44.00;;
67308;Laerm;57662;51.436;5.978;2023-06-22T00:37:17;36.67;34.54;44.62;;
67308;Laerm;57662;51.436;5.978;2023-06-22T00:37:28;35.25;33.90;36.54;;
67308;Laerm;57662;51.436;5.978;2023-06-22T00:37:39;35.28;33.90;38.95;;
67308;Laerm;57662;51.436;5.978;2023-06-22T00:37:52;35.40;34.02;36.85;;
67308;Laerm;57662;51.436;5.978;2023-06-22T00:38:10;35.10;34.03;36.66;;
67308;Laerm;57662;51.436;5.978;2023-06-22T00:38:21;35.11;33.85;36.04;;
67308;Laerm;57662;51.436;5.978;2023-06-22T00:38:31;35.09;33.57;36.35;;
67308;Laerm;57662;51.436;5.978;2023-06-22T00:38:42;35.46;33.58;38.60;;
67308;Laerm;57662;51.436;5.978;2023-06-22T00:38:52;35.29;33.65;38.11;;
67308;Laerm;57662;51.436;5.978;2023-06-22T00:39:02;34.95;33.57;35.91;;
67308;Laerm;57662;51.436;5.978;2023-06-22T00:39:13;35.03;33.78;36.16;;
67308;Laerm;57662;51.436;5.978;2023-06-22T00:39:24;34.85;33.70;35.77;;
67308;Laerm;57662;51.436;5.978;2023-06-22T00:39:34;34.88;33.71;36.15;;
67308;Laerm;57662;51.436;5.978;2023-06-22T00:39:44;35.06;33.86;36.68;;
67308;Laerm;57662;51.436;5.978;2023-06-22T00:39:55;34.98;33.88;36.08;;
67308;Laerm;57662;51.436;5.978;2023-06-22T00:40:06;35.11;33.82;36.10;;
67308;Laerm;57662;51.436;5.978;2023-06-22T00:40:18;35.06;34.00;36.75;;
67308;Laerm;57662;51.436;5.978;2023-06-22T00:40:32;35.16;34.10;36.39;;
67308;Laerm;57662;51.436;5.978;2023-06-22T00:40:42;35.11;33.61;36.14;;
67308;Laerm;57662;51.436;5.978;2023-06-22T00:40:52;35.11;33.97;36.26;;
67308;Laerm;57662;51.436;5.978;2023-06-22T00:41:03;34.96;33.92;36.19;;
67308;Laerm;57662;51.436;5.978;2023-06-22T00:41:13;34.93;33.55;35.88;;
67308;Laerm;57662;51.436;5.978;2023-06-22T00:41:23;35.07;33.57;36.15;;
67308;Laerm;57662;51.436;5.978;2023-06-22T00:41:33;34.95;33.79;36.21;;
67308;Laerm;57662;51.436;5.978;2023-06-22T00:41:44;34.98;33.81;37.68;;
67308;Laerm;57662;51.436;5.978;2023-06-22T00:41:54;35.07;33.75;36.43;;
67308;Laerm;57662;51.436;5.978;2023-06-22T00:42:05;35.09;33.85;36.32;;
67308;Laerm;57662;51.436;5.978;2023-06-22T00:42:15;35.07;33.94;36.63;;
67308;Laerm;57662;51.436;5.978;2023-06-22T00:42:26;34.99;33.57;36.02;;
67308;Laerm;57662;51.436;5.978;2023-06-22T00:42:37;35.07;33.76;36.22;;
67308;Laerm;57662;51.436;5.978;2023-06-22T00:42:47;34.92;33.56;36.02;;
67308;Laerm;57662;51.436;5.978;2023-06-22T00:42:58;35.07;33.78;36.15;;
67308;Laerm;57662;51.436;5.978;2023-06-22T00:43:09;35.13;33.94;36.48;;
67308;Laerm;57662;51.436;5.978;2023-06-22T00:43:19;35.05;33.84;36.17;;
67308;Laerm;57662;51.436;5.978;2023-06-22T00:43:30;35.17;33.86;36.17;;
67308;Laerm;57662;51.436;5.978;2023-06-22T00:43:40;35.08;33.92;36.11;;
67308;Laerm;57662;51.436;5.978;2023-06-22T00:43:52;35.01;33.77;36.22;;
67308;Laerm;57662;51.436;5.978;2023-06-22T00:44:02;35.08;33.87;38.74;;
67308;Laerm;57662;51.436;5.978;2023-06-22T00:44:12;35.06;33.65;36.13;;
67308;Laerm;57662;51.436;5.978;2023-06-22T00:44:23;35.18;33.99;36.14;;
67308;Laerm;57662;51.436;5.978;2023-06-22T00:44:34;35.17;34.07;36.63;;
67308;Laerm;57662;51.436;5.978;2023-06-22T00:44:45;35.14;33.65;36.23;;
67308;Laerm;57662;51.436;5.978;2023-06-22T00:44:55;35.16;33.76;36.58;;
67308;Laerm;57662;51.436;5.978;2023-06-22T00:45:05;35.18;33.98;36.44;;
67308;Laerm;57662;51.436;5.978;2023-06-22T00:45:16;34.97;33.80;36.09;;
67308;Laerm;57662;51.436;5.978;2023-06-22T00:45:26;34.96;33.70;35.96;;
67308;Laerm;57662;51.436;5.978;2023-06-22T00:45:37;35.21;34.12;36.39;;
67308;Laerm;57662;51.436;5.978;2023-06-22T00:45:47;35.26;33.80;39.82;;
67308;Laerm;57662;51.436;5.978;2023-06-22T00:45:58;35.15;33.98;36.44;;
67308;Laerm;57662;51.436;5.978;2023-06-22T00:46:09;35.11;33.77;36.39;;
67308;Laerm;57662;51.436;5.978;2023-06-22T00:46:19;35.03;33.78;36.13;;
67308;Laerm;57662;51.436;5.978;2023-06-22T00:46:30;34.94;33.69;36.23;;
67308;Laerm;57662;51.436;5.978;2023-06-22T00:46:41;35.01;33.85;36.21;;
67308;Laerm;57662;51.436;5.978;2023-06-22T00:46:52;35.06;34.16;36.39;;
67308;Laerm;57662;51.436;5.978;2023-06-22T00:47:02;35.13;33.92;36.15;;
67308;Laerm;57662;51.436;5.978;2023-06-22T00:47:14;35.11;34.05;36.36;;
67308;Laerm;57662;51.436;5.978;2023-06-22T00:47:25;35.28;33.92;36.73;;
67308;Laerm;57662;51.436;5.978;2023-06-22T00:47:37;35.36;34.08;36.92;;
67308;Laerm;57662;51.436;5.978;2023-06-22T00:47:47;35.10;33.99;36.29;;
67308;Laerm;57662;51.436;5.978;2023-06-22T00:47:58;35.14;34.13;36.54;;
67308;Laerm;57662;51.436;5.978;2023-06-22T00:48:09;35.36;33.70;36.41;;
67308;Laerm;57662;51.436;5.978;2023-06-22T00:48:19;35.17;33.98;36.61;;
67308;Laerm;57662;51.436;5.978;2023-06-22T00:48:30;35.09;34.07;36.37;;
67308;Laerm;57662;51.436;5.978;2023-06-22T00:48:40;35.12;34.07;36.50;;
67308;Laerm;57662;51.436;5.978;2023-06-22T00:48:53;35.22;33.88;36.45;;
67308;Laerm;57662;51.436;5.978;2023-06-22T00:49:07;35.18;33.98;36.34;;
67308;Laerm;57662;51.436;5.978;2023-06-22T00:49:17;35.06;33.98;36.01;;
67308;Laerm;57662;51.436;5.978;2023-06-22T00:49:28;34.99;33.83;36.15;;
67308;Laerm;57662;51.436;5.978;2023-06-22T00:49:38;35.03;33.70;36.05;;
67308;Laerm;57662;51.436;5.978;2023-06-22T00:49:49;35.02;33.93;36.06;;
67308;Laerm;57662;51.436;5.978;2023-06-22T00:50:01;35.07;33.69;36.28;;
67308;Laerm;57662;51.436;5.978;2023-06-22T00:50:14;35.10;33.81;36.51;;
67308;Laerm;57662;51.436;5.978;2023-06-22T00:50:30;35.25;33.69;43.20;;
67308;Laerm;57662;51.436;5.978;2023-06-22T00:50:43;35.24;33.97;37.13;;
67308;Laerm;57662;51.436;5.978;2023-06-22T00:50:54;35.38;34.19;36.80;;
67308;Laerm;57662;51.436;5.978;2023-06-22T00:51:05;35.34;33.84;36.62;;
67308;Laerm;57662;51.436;5.978;2023-06-22T00:51:17;35.22;33.90;36.48;;
67308;Laerm;57662;51.436;5.978;2023-06-22T00:51:27;35.32;34.06;36.51;;
67308;Laerm;57662;51.436;5.978;2023-06-22T00:51:38;35.24;34.10;36.29;;
67308;Laerm;57662;51.436;5.978;2023-06-22T00:51:48;35.24;34.23;36.47;;
67308;Laerm;57662;51.436;5.978;2023-06-22T00:51:59;35.38;34.09;36.54;;
67308;Laerm;57662;51.436;5.978;2023-06-22T00:52:09;35.44;34.26;36.79;;
67308;Laerm;57662;51.436;5.978;2023-06-22T00:52:24;35.30;34.09;36.59;;
67308;Laerm;57662;51.436;5.978;2023-06-22T00:52:39;35.37;34.00;37.85;;
67308;Laerm;57662;51.436;5.978;2023-06-22T00:52:56;35.28;34.27;36.67;;
67308;Laerm;57662;51.436;5.978;2023-06-22T00:53:08;35.17;33.60;36.38;;
67308;Laerm;57662;51.436;5.978;2023-06-22T00:53:19;35.25;33.71;36.32;;
67308;Laerm;57662;51.436;5.978;2023-06-22T00:53:30;35.33;34.21;36.54;;
67308;Laerm;57662;51.436;5.978;2023-06-22T00:53:45;35.32;33.85;36.99;;
67308;Laerm;57662;51.436;5.978;2023-06-22T00:53:56;35.27;33.90;36.80;;
67308;Laerm;57662;51.436;5.978;2023-06-22T00:54:06;35.45;34.26;36.42;;
67308;Laerm;57662;51.436;5.978;2023-06-22T00:54:17;35.42;33.94;36.44;;
67308;Laerm;57662;51.436;5.978;2023-06-22T00:54:35;35.35;34.13;36.79;;
67308;Laerm;57662;51.436;5.978;2023-06-22T00:54:48;35.46;34.00;37.15;;
67308;Laerm;57662;51.436;5.978;2023-06-22T00:55:01;35.41;34.16;36.83;;
67308;Laerm;57662;51.436;5.978;2023-06-22T00:55:12;35.27;33.96;36.47;;
67308;Laerm;57662;51.436;5.978;2023-06-22T00:55:22;35.27;34.01;36.49;;
67308;Laerm;57662;51.436;5.978;2023-06-22T00:55:34;35.23;34.03;36.50;;
67308;Laerm;57662;51.436;5.978;2023-06-22T00:55:47;35.15;34.01;36.70;;
67308;Laerm;57662;51.436;5.978;2023-06-22T00:55:57;35.30;34.31;36.36;;
67308;Laerm;57662;51.436;5.978;2023-06-22T00:56:09;35.30;33.38;36.98;;
67308;Laerm;57662;51.436;5.978;2023-06-22T00:56:23;35.39;34.37;36.33;;
67308;Laerm;57662;51.436;5.978;2023-06-22T00:56:34;35.64;34.31;37.41;;
67308;Laerm;57662;51.436;5.978;2023-06-22T00:56:47;36.11;34.58;40.28;;
67308;Laerm;57662;51.436;5.978;2023-06-22T00:56:58;36.46;34.50;40.89;;
67308;Laerm;57662;51.436;5.978;2023-06-22T00:57:08;36.61;34.68;40.35;;
67308;Laerm;57662;51.436;5.978;2023-06-22T00:57:21;36.11;34.26;38.35;;
67308;Laerm;57662;51.436;5.978;2023-06-22T00:57:32;36.57;34.55;41.02;;
67308;Laerm;57662;51.436;5.978;2023-06-22T00:57:42;36.56;34.88;40.48;;
67308;Laerm;57662;51.436;5.978;2023-06-22T00:57:53;36.03;34.27;38.37;;
67308;Laerm;57662;51.436;5.978;2023-06-22T00:58:06;35.92;34.05;39.86;;
67308;Laerm;57662;51.436;5.978;2023-06-22T00:58:21;35.89;33.77;38.27;;
67308;Laerm;57662;51.436;5.978;2023-06-22T00:58:35;35.69;34.35;38.64;;
67308;Laerm;57662;51.436;5.978;2023-06-22T00:58:46;35.51;34.23;36.82;;
67308;Laerm;57662;51.436;5.978;2023-06-22T00:58:58;35.37;34.32;36.56;;
67308;Laerm;57662;51.436;5.978;2023-06-22T00:59:09;35.26;34.05;36.50;;
67308;Laerm;57662;51.436;5.978;2023-06-22T00:59:22;35.50;33.99;36.87;;
67308;Laerm;57662;51.436;5.978;2023-06-22T00:59:34;35.48;33.92;39.07;;
67308;Laerm;57662;51.436;5.978;2023-06-22T00:59:44;35.30;33.85;36.72;;
67308;Laerm;57662;51.436;5.978;2023-06-22T00:59:55;35.48;34.17;36.72;;
67308;Laerm;57662;51.436;5.978;2023-06-22T01:00:06;39.07;34.24;51.45;;
67308;Laerm;57662;51.436;5.978;2023-06-22T01:00:19;40.58;34.56;52.45;;
67308;Laerm;57662;51.436;5.978;2023-06-22T01:00:30;35.88;34.58;38.79;;
67308;Laerm;57662;51.436;5.978;2023-06-22T01:00:40;35.79;34.48;38.49;;
67308;Laerm;57662;51.436;5.978;2023-06-22T01:00:51;36.01;34.15;38.61;;
67308;Laerm;57662;51.436;5.978;2023-06-22T01:01:01;36.10;34.24;40.25;;
67308;Laerm;57662;51.436;5.978;2023-06-22T01:01:12;35.59;33.71;38.42;;
67308;Laerm;57662;51.436;5.978;2023-06-22T01:01:24;35.76;34.47;37.39;;